createdAt,value
2024-04-06T00:00:17.088Z,74.4454
2024-04-06T00:01:18.505Z,74.4138
2024-04-06T00:02:19.904Z,74.3802
2024-04-06T00:03:23.807Z,74.3684
2024-04-06T00:04:23.194Z,74.3823
2024-04-06T00:05:24.485Z,74.4374
2024-04-06T00:06:25.733Z,74.5020
2024-04-06T00:07:27.048Z,74.5853
2024-04-06T00:08:28.319Z,74.6470
2024-04-06T00:09:29.608Z,74.6656
2024-04-06T00:10:30.861Z,74.6349
2024-04-06T00:11:32.169Z,74.5889
2024-04-06T00:12:33.635Z,74.6080
2024-04-06T00:13:35.038Z,74.6327
2024-04-06T00:14:36.307Z,74.6184
2024-04-06T00:15:37.587Z,74.5982
2024-04-06T00:16:38.882Z,74.6041
2024-04-06T00:17:40.172Z,74.6973
2024-04-06T00:18:41.611Z,74.8351
2024-04-06T00:19:43.104Z,74.9565
2024-04-06T00:20:44.488Z,75.0192
2024-04-06T00:21:45.940Z,75.0324
2024-04-06T00:22:47.385Z,75.0256
2024-04-06T00:23:48.812Z,74.9573
2024-04-06T00:24:50.255Z,74.9253
2024-04-06T00:25:51.691Z,74.9514
2024-04-06T00:26:53.189Z,74.9398
2024-04-06T00:27:54.556Z,74.9064
2024-04-06T00:28:55.828Z,74.8986
2024-04-06T00:29:57.134Z,74.9350
2024-04-06T00:30:58.392Z,74.9603
2024-04-06T00:31:59.692Z,74.9456
2024-04-06T00:33:01.149Z,74.9320
2024-04-06T00:34:02.591Z,74.9508
2024-04-06T00:35:04.013Z,75.0165
2024-04-06T00:36:05.445Z,75.0687
2024-04-06T00:37:06.888Z,75.1641
2024-04-06T00:38:08.328Z,75.3764
2024-04-06T00:39:09.774Z,75.5521
2024-04-06T00:40:11.240Z,75.6649
2024-04-06T00:41:12.614Z,75.7351
2024-04-06T00:42:14.067Z,75.7396
2024-04-06T00:43:15.506Z,75.7401
2024-04-06T00:44:16.949Z,75.7374
2024-04-06T00:45:18.381Z,75.7009
2024-04-06T00:46:19.827Z,75.6111
2024-04-06T00:47:21.147Z,75.5182
2024-04-06T00:48:22.450Z,75.4357
2024-04-06T00:49:23.725Z,75.3591
2024-04-06T00:50:25.064Z,75.3111
2024-04-06T00:51:26.400Z,75.3086
2024-04-06T00:52:27.819Z,75.3604
2024-04-06T00:53:29.317Z,75.4462
2024-04-06T00:54:30.698Z,75.5145
2024-04-06T00:55:32.147Z,75.5044
2024-04-06T00:56:33.584Z,75.5012
2024-04-06T00:57:35.025Z,75.5542
2024-04-06T00:58:36.365Z,75.6187
2024-04-06T00:59:37.705Z,75.6625
2024-04-06T01:00:39.032Z,75.6865
2024-04-06T01:01:44.326Z,75.7060
2024-04-06T01:02:40.332Z,75.8164
2024-04-06T01:03:41.758Z,75.9212
2024-04-06T01:04:43.198Z,75.9917
2024-04-06T01:05:44.517Z,75.9666
2024-04-06T01:06:45.845Z,75.9104
2024-04-06T01:07:47.183Z,75.9058
2024-04-06T01:08:48.628Z,75.9287
2024-04-06T01:09:50.067Z,75.9556
2024-04-06T01:10:51.506Z,75.9494
2024-04-06T01:11:52.946Z,75.9451
2024-04-06T01:12:54.376Z,75.9463
2024-04-06T01:13:55.816Z,75.9835
2024-04-06T01:14:57.259Z,76.0266
2024-04-06T01:15:58.766Z,76.0424
2024-04-06T01:17:00.157Z,76.0475
2024-04-06T01:18:01.587Z,76.0741
2024-04-06T01:19:03.031Z,76.0690
2024-04-06T01:20:04.462Z,76.0905
2024-04-06T01:21:05.898Z,76.1465
2024-04-06T01:22:07.348Z,76.2312
2024-04-06T01:23:08.644Z,76.2748
2024-04-06T01:24:10.057Z,76.2730
2024-04-06T01:25:11.377Z,76.2356
2024-04-06T01:26:12.846Z,76.1953
2024-04-06T01:27:14.198Z,76.1544
2024-04-06T01:28:15.647Z,76.1207
2024-04-06T01:29:17.070Z,76.1458
2024-04-06T01:30:18.511Z,76.1969
2024-04-06T01:31:19.943Z,76.2343
2024-04-06T01:32:21.477Z,76.2653
2024-04-06T01:33:22.827Z,76.2942
2024-04-06T01:34:24.282Z,76.3814
2024-04-06T01:35:25.862Z,76.4881
2024-04-06T01:36:27.226Z,76.5321
2024-04-06T01:37:28.595Z,76.5397
2024-04-06T01:38:30.107Z,76.5398
2024-04-06T01:39:31.495Z,76.5750
2024-04-06T01:40:33.048Z,76.6257
2024-04-06T01:41:34.378Z,76.6286
2024-04-06T01:42:35.827Z,76.6064
2024-04-06T01:43:37.263Z,76.5834
2024-04-06T01:44:38.711Z,76.5893
2024-04-06T01:45:40.137Z,76.6537
2024-04-06T01:46:41.577Z,76.7188
2024-04-06T01:47:43.026Z,76.7713
2024-04-06T01:48:44.375Z,76.8465
2024-04-06T01:49:45.687Z,76.8864
2024-04-06T01:50:47.009Z,76.8729
2024-04-06T01:51:48.459Z,76.7791
2024-04-06T01:52:49.907Z,76.6278
2024-04-06T01:53:51.315Z,76.4715
2024-04-06T01:54:52.602Z,76.3295
2024-04-06T01:55:53.947Z,76.2478
2024-04-06T01:56:55.345Z,76.2628
2024-04-06T01:57:56.774Z,76.3342
2024-04-06T01:58:58.229Z,76.3300
2024-04-06T01:59:59.672Z,76.3464
2024-04-06T02:01:01.118Z,76.5168
2024-04-06T02:02:02.545Z,76.6560
2024-04-06T02:03:03.848Z,76.7135
2024-04-06T02:04:05.190Z,76.6881
2024-04-06T02:05:06.539Z,76.6528
2024-04-06T02:06:07.949Z,76.6779
2024-04-06T02:07:09.430Z,76.7480
2024-04-06T02:08:10.862Z,76.7883
2024-04-06T02:09:12.316Z,76.7805
2024-04-06T02:10:13.752Z,76.7682
2024-04-06T02:11:15.167Z,76.7734
2024-04-06T02:12:16.639Z,76.7746
2024-04-06T02:13:18.073Z,76.7793
2024-04-06T02:14:19.607Z,76.8054
2024-04-06T02:15:20.924Z,76.8653
2024-04-06T02:16:22.387Z,76.8699
2024-04-06T02:17:23.861Z,76.8317
2024-04-06T02:18:25.267Z,76.7417
2024-04-06T02:19:26.783Z,76.6694
2024-04-06T02:20:28.232Z,76.6767
2024-04-06T02:21:29.594Z,76.7167
2024-04-06T02:22:31.353Z,76.7231
2024-04-06T02:23:32.794Z,76.6970
2024-04-06T02:24:34.261Z,76.6657
2024-04-06T02:25:35.662Z,76.6755
2024-04-06T02:26:37.089Z,76.6687
2024-04-06T02:27:38.552Z,76.6376
2024-04-06T02:28:39.981Z,76.5544
2024-04-06T02:29:41.430Z,76.4434
2024-04-06T02:30:42.709Z,76.4305
2024-04-06T02:31:44.070Z,76.4243
2024-04-06T02:32:45.429Z,76.4101
2024-04-06T02:33:46.856Z,76.4213
2024-04-06T02:34:48.337Z,76.4394
2024-04-06T02:35:49.745Z,76.3909
2024-04-06T02:36:51.037Z,76.3434
2024-04-06T02:37:52.355Z,76.3813
2024-04-06T02:38:53.682Z,76.4411
2024-04-06T02:39:54.955Z,76.4337
2024-04-06T02:40:56.251Z,76.3521
2024-04-06T02:41:57.774Z,76.2547
2024-04-06T02:42:59.261Z,76.1519
2024-04-06T02:44:00.620Z,76.0396
2024-04-06T02:45:02.155Z,75.9187
2024-04-06T02:46:03.501Z,75.7874
2024-04-06T02:47:04.943Z,75.6986
2024-04-06T02:48:06.386Z,75.6316
2024-04-06T02:49:07.816Z,75.4990
2024-04-06T02:50:09.248Z,75.3516
2024-04-06T02:51:10.704Z,75.2363
2024-04-06T02:52:12.143Z,75.2051
2024-04-06T02:53:13.567Z,75.2270
2024-04-06T02:54:15.026Z,75.2361
2024-04-06T02:55:16.466Z,75.2116
2024-04-06T02:56:17.911Z,75.1685
2024-04-06T02:57:19.346Z,75.2072
2024-04-06T02:58:20.755Z,75.2887
2024-04-06T02:59:22.212Z,75.2560
2024-04-06T03:00:23.666Z,75.2003
2024-04-06T03:01:25.097Z,75.1374
2024-04-06T03:02:26.575Z,75.1301
2024-04-06T03:03:27.995Z,75.2151
2024-04-06T03:04:29.415Z,75.3142
2024-04-06T03:05:30.724Z,75.4678
2024-04-06T03:06:32.007Z,75.6463
2024-04-06T03:07:33.526Z,75.8895
2024-04-06T03:08:34.867Z,76.0808
2024-04-06T03:09:36.316Z,76.2158
2024-04-06T03:10:37.732Z,76.3244
2024-04-06T03:11:39.186Z,76.4514
2024-04-06T03:12:40.599Z,76.5340
2024-04-06T03:13:42.068Z,76.6250
2024-04-06T03:14:43.377Z,76.7431
2024-04-06T03:15:44.952Z,76.8748
2024-04-06T03:16:46.385Z,76.9321
2024-04-06T03:17:47.815Z,76.9683
2024-04-06T03:18:49.259Z,76.9985
2024-04-06T03:19:50.715Z,77.0675
2024-04-06T03:20:52.019Z,77.0647
2024-04-06T03:21:53.308Z,77.0490
2024-04-06T03:22:54.712Z,77.0301
2024-04-06T03:23:56.234Z,77.0285
2024-04-06T03:24:57.696Z,77.0199
2024-04-06T03:25:59.028Z,76.9890
2024-04-06T03:27:00.450Z,76.9491
2024-04-06T03:28:01.944Z,76.8572
2024-04-06T03:29:03.335Z,76.7397
2024-04-06T03:30:04.798Z,76.7677
2024-04-06T03:31:06.212Z,76.8102
2024-04-06T03:32:07.746Z,76.8250
2024-04-06T03:33:09.106Z,76.8336
2024-04-06T03:34:10.545Z,76.8051
2024-04-06T03:35:11.988Z,76.7552
2024-04-06T03:36:13.427Z,76.6488
2024-04-06T03:37:14.869Z,76.5200
2024-04-06T03:38:16.301Z,76.3932
2024-04-06T03:39:17.731Z,76.2995
2024-04-06T03:40:19.014Z,76.2875
2024-04-06T03:41:20.344Z,76.3964
2024-04-06T03:42:21.752Z,76.5150
2024-04-06T03:43:23.042Z,76.5919
2024-04-06T03:44:24.437Z,76.5842
2024-04-06T03:45:25.754Z,76.5648
2024-04-06T03:46:27.064Z,76.6115
2024-04-06T03:47:28.379Z,76.6845
2024-04-06T03:48:29.734Z,76.7380
2024-04-06T03:49:31.170Z,76.7666
2024-04-06T03:50:32.674Z,76.8420
2024-04-06T03:51:34.027Z,76.9438
2024-04-06T03:52:35.339Z,77.0108
2024-04-06T03:53:36.620Z,77.0024
2024-04-06T03:54:38.055Z,76.8809
2024-04-06T03:55:39.492Z,76.7281
2024-04-06T03:56:40.946Z,76.6183
2024-04-06T03:57:42.375Z,76.5928
2024-04-06T03:58:43.826Z,76.7783
2024-04-06T03:59:45.266Z,76.9803
2024-04-06T04:00:46.704Z,77.0489
2024-04-06T04:01:48.144Z,77.0740
2024-04-06T04:02:49.574Z,77.1383
2024-04-06T04:03:51.015Z,77.1540
2024-04-06T04:04:52.455Z,77.1239
2024-04-06T04:05:53.910Z,77.0620
2024-04-06T04:06:55.354Z,76.9909
2024-04-06T04:07:56.784Z,76.9900
2024-04-06T04:08:58.234Z,76.9685
2024-04-06T04:09:59.655Z,76.9477
2024-04-06T04:11:01.112Z,76.9342
2024-04-06T04:12:02.530Z,76.9323
2024-04-06T04:13:03.978Z,76.8899
2024-04-06T04:14:05.409Z,76.8641
2024-04-06T04:15:06.853Z,76.8022
2024-04-06T04:16:08.286Z,76.6947
2024-04-06T04:17:09.735Z,76.6541
2024-04-06T04:18:11.174Z,76.6135
2024-04-06T04:19:12.609Z,76.5250
2024-04-06T04:20:13.905Z,76.4453
2024-04-06T04:21:15.198Z,76.4643
2024-04-06T04:22:16.504Z,76.5175
2024-04-06T04:23:17.849Z,76.5884
2024-04-06T04:24:19.164Z,76.6575
2024-04-06T04:25:20.616Z,76.7790
2024-04-06T04:26:22.055Z,76.8939
2024-04-06T04:27:23.498Z,76.9445
2024-04-06T04:28:24.936Z,77.0137
2024-04-06T04:29:26.395Z,77.0776
2024-04-06T04:30:27.826Z,77.1299
2024-04-06T04:31:29.286Z,77.2119
2024-04-06T04:32:30.754Z,77.3003
2024-04-06T04:33:32.140Z,77.3144
2024-04-06T04:34:33.580Z,77.2283
2024-04-06T04:35:35.051Z,77.1380
2024-04-06T04:36:36.386Z,77.1738
2024-04-06T04:37:37.688Z,77.1683
2024-04-06T04:38:39.056Z,77.0761
2024-04-06T04:39:40.462Z,77.0941
2024-04-06T04:40:41.742Z,77.1462
2024-04-06T04:41:43.067Z,77.1016
2024-04-06T04:42:44.462Z,77.0346
2024-04-06T04:43:45.906Z,76.9477
2024-04-06T04:44:53.483Z,76.9106
2024-04-06T04:45:47.529Z,77.0207
2024-04-06T04:46:49.075Z,77.1451
2024-04-06T04:47:50.470Z,77.1441
2024-04-06T04:48:51.774Z,77.0397
2024-04-06T04:49:53.297Z,76.8830
2024-04-06T04:50:54.599Z,76.7258
2024-04-06T04:51:55.949Z,76.5539
2024-04-06T04:52:57.238Z,76.3530
2024-04-06T04:53:58.707Z,76.1680
2024-04-06T04:55:00.171Z,75.9985
2024-04-06T04:56:01.607Z,75.8824
2024-04-06T04:57:02.908Z,75.7804
2024-04-06T04:58:04.297Z,75.6711
2024-04-06T04:59:05.630Z,75.6123
2024-04-06T05:00:07.011Z,75.6175
2024-04-06T05:01:08.539Z,75.7277
2024-04-06T05:02:09.906Z,75.9418
2024-04-06T05:03:11.337Z,76.0333
2024-04-06T05:04:12.607Z,76.0583
2024-04-06T05:05:13.896Z,76.1384
2024-04-06T05:06:15.203Z,76.2622
2024-04-06T05:07:16.458Z,76.3678
2024-04-06T05:08:17.759Z,76.5080
2024-04-06T05:09:19.010Z,76.7122
2024-04-06T05:10:20.259Z,77.0028
2024-04-06T05:11:21.614Z,77.2970
2024-04-06T05:12:23.023Z,77.4972
2024-04-06T05:13:24.471Z,77.6626
2024-04-06T05:14:25.918Z,77.7686
2024-04-06T05:15:27.349Z,77.7739
2024-04-06T05:16:28.833Z,77.8150
2024-04-06T05:17:30.244Z,77.8527
2024-04-06T05:18:31.677Z,77.8581
2024-04-06T05:19:32.982Z,77.8859
2024-04-06T05:20:34.324Z,77.9076
2024-04-06T05:21:35.682Z,77.8689
2024-04-06T05:22:37.112Z,77.8142
2024-04-06T05:23:38.627Z,77.7516
2024-04-06T05:24:39.965Z,77.6873
2024-04-06T05:25:41.234Z,77.6900
2024-04-06T05:26:42.589Z,77.7381
2024-04-06T05:27:43.962Z,77.7750
2024-04-06T05:28:45.231Z,77.8005
2024-04-06T05:29:46.543Z,77.8454
2024-04-06T05:30:47.986Z,77.8530
2024-04-06T05:31:49.418Z,77.8150
2024-04-06T05:32:50.698Z,77.7660
2024-04-06T05:33:51.994Z,77.7282
2024-04-06T05:34:53.432Z,77.7089
2024-04-06T05:35:54.858Z,77.6895
2024-04-06T05:36:56.314Z,77.6621
2024-04-06T05:37:57.738Z,77.6137
2024-04-06T05:38:59.006Z,77.5566
2024-04-06T05:40:00.298Z,77.5081
2024-04-06T05:41:01.737Z,77.4606
2024-04-06T05:42:03.191Z,77.4611
2024-04-06T05:43:04.624Z,77.4805
2024-04-06T05:44:07.597Z,77.4716
2024-04-06T05:45:09.007Z,77.4374
2024-04-06T05:46:10.259Z,77.3966
2024-04-06T05:47:11.669Z,77.3615
2024-04-06T05:48:13.099Z,77.3402
2024-04-06T05:49:14.607Z,77.3244
2024-04-06T05:50:15.988Z,77.3072
2024-04-06T05:51:17.418Z,77.2989
2024-04-06T05:52:18.707Z,77.2957
2024-04-06T05:53:20.066Z,77.2973
2024-04-06T05:54:21.420Z,77.2878
2024-04-06T05:55:22.666Z,77.2689
2024-04-06T05:56:23.987Z,77.2742
2024-04-06T05:57:25.431Z,77.3023
2024-04-06T05:58:26.861Z,77.3064
2024-04-06T05:59:28.321Z,77.2701
2024-04-06T06:00:29.740Z,77.2218
2024-04-06T06:01:31.199Z,77.1643
2024-04-06T06:02:32.728Z,77.0952
2024-04-06T06:03:33.979Z,77.0353
2024-04-06T06:04:35.499Z,77.0018
2024-04-06T06:05:36.789Z,76.9697
2024-04-06T06:06:38.051Z,76.9451
2024-04-06T06:07:39.512Z,76.9193
2024-04-06T06:08:40.953Z,76.9036
2024-04-06T06:09:42.377Z,76.8868
2024-04-06T06:10:43.884Z,76.8577
2024-04-06T06:11:45.271Z,76.8115
2024-04-06T06:12:46.717Z,76.7708
2024-04-06T06:13:48.147Z,76.7469
2024-04-06T06:14:49.576Z,76.7130
2024-04-06T06:15:51.026Z,76.6731
2024-04-06T06:16:52.507Z,76.6419
2024-04-06T06:17:53.923Z,76.6243
2024-04-06T06:18:55.326Z,76.6108
2024-04-06T06:19:56.595Z,76.5914
2024-04-06T06:20:58.007Z,76.5726
2024-04-06T06:21:59.346Z,76.5584
2024-04-06T06:23:00.792Z,76.5626
2024-04-06T06:24:02.254Z,76.5646
2024-04-06T06:25:03.676Z,76.5451
2024-04-06T06:26:05.107Z,76.5271
2024-04-06T06:27:06.568Z,76.5025
2024-04-06T06:28:07.985Z,76.4843
2024-04-06T06:29:09.448Z,76.4743
2024-04-06T06:30:10.868Z,76.4598
2024-04-06T06:31:12.303Z,76.4456
2024-04-06T06:32:13.753Z,76.4256
2024-04-06T06:33:15.195Z,76.4086
2024-04-06T06:34:16.654Z,76.3928
2024-04-06T06:35:18.069Z,76.3926
2024-04-06T06:38:20.511Z,76.4117
2024-04-06T06:41:23.573Z,76.4186
2024-04-06T06:42:24.934Z,76.4090
2024-04-06T06:43:26.384Z,76.4082
2024-04-06T06:44:27.838Z,76.4323
2024-04-06T06:45:29.269Z,76.4726
2024-04-06T06:46:30.693Z,76.5029
2024-04-06T06:47:32.179Z,76.5184
2024-04-06T06:48:33.570Z,76.5250
2024-04-06T06:49:35.017Z,76.5067
2024-04-06T06:50:36.455Z,76.4869
2024-04-06T06:51:37.896Z,76.4488
2024-04-06T06:52:39.352Z,76.3943
2024-04-06T06:53:40.622Z,76.3464
2024-04-06T06:54:42.828Z,76.3220
2024-04-06T06:55:44.237Z,76.3096
2024-04-06T06:56:45.682Z,76.3111
2024-04-06T06:57:47.131Z,76.3366
2024-04-06T06:58:48.366Z,76.3767
2024-04-06T07:00:50.346Z,76.4295
2024-04-06T07:01:51.650Z,76.4357
2024-04-06T07:02:52.909Z,76.4340
2024-04-06T07:03:54.208Z,76.4231
2024-04-06T07:04:55.458Z,76.4588
2024-04-06T07:05:56.897Z,76.5117
2024-04-06T07:07:58.937Z,76.4845
2024-04-06T07:09:02.748Z,76.4526
2024-04-06T07:10:00.786Z,76.4242
2024-04-06T07:11:02.078Z,76.4150
2024-04-06T07:12:03.325Z,76.4353
2024-04-06T07:13:04.652Z,76.4826
2024-04-06T07:14:06.082Z,76.5119
2024-04-06T07:15:07.498Z,76.5343
2024-04-06T07:16:08.775Z,76.5397
2024-04-06T07:17:10.060Z,76.5224
2024-04-06T07:18:11.329Z,76.5185
2024-04-06T07:19:12.927Z,76.4990
2024-04-06T07:20:14.190Z,76.4777
2024-04-06T07:21:15.505Z,76.4632
2024-04-06T07:22:16.956Z,76.4427
2024-04-06T07:23:18.286Z,76.4117
2024-04-06T07:24:19.553Z,76.3784
2024-04-06T07:25:20.814Z,76.3485
2024-04-06T07:26:22.078Z,76.3274
2024-04-06T07:27:23.503Z,76.3184
2024-04-06T07:28:24.942Z,76.3280
2024-04-06T07:29:26.386Z,76.3373
2024-04-06T07:30:27.833Z,76.3205
2024-04-06T07:31:29.279Z,76.2810
2024-04-06T07:32:30.770Z,76.2376
2024-04-06T07:33:32.124Z,76.1976
2024-04-06T07:34:33.595Z,76.1378
2024-04-06T07:35:35.020Z,76.0630
2024-04-06T07:36:36.471Z,76.0169
2024-04-06T07:37:37.898Z,75.9661
2024-04-06T07:39:20.084Z,75.8789
2024-04-06T07:39:39.298Z,75.7604
2024-04-06T07:40:40.625Z,75.6623
2024-04-06T07:41:42.055Z,75.5940
2024-04-06T07:42:43.498Z,75.5369
2024-04-06T07:43:44.944Z,75.4884
2024-04-06T07:44:46.380Z,75.4391
2024-04-06T07:45:47.671Z,75.3769
2024-04-06T07:46:49.525Z,75.3331
2024-04-06T07:47:50.968Z,75.2898
2024-04-06T07:48:52.381Z,75.2259
2024-04-06T07:49:53.835Z,75.1823
2024-04-06T07:50:55.286Z,75.1695
2024-04-06T07:51:56.728Z,75.1927
2024-04-06T07:52:58.151Z,75.1634
2024-04-06T07:53:59.442Z,75.1329
2024-04-06T07:55:00.727Z,75.1024
2024-04-06T07:56:02.018Z,75.0957
2024-04-06T07:57:03.425Z,75.0767
2024-04-06T07:58:04.713Z,75.0544
2024-04-06T07:59:06.014Z,75.0257
2024-04-06T08:00:07.454Z,75.0357
2024-04-06T08:01:08.797Z,75.0349
2024-04-06T08:02:10.208Z,74.7851
2024-04-06T08:03:11.657Z,74.5330
2024-04-06T08:04:12.981Z,74.6994
2024-04-06T08:05:14.305Z,74.7851
2024-04-06T08:06:15.697Z,74.8019
2024-04-06T08:07:17.131Z,74.8018
2024-04-06T08:08:18.456Z,74.6370
2024-04-06T08:09:19.745Z,74.4516
2024-04-06T08:10:21.226Z,74.4375
2024-04-06T08:11:22.537Z,74.4110
2024-04-06T08:12:23.997Z,73.7994
2024-04-06T08:13:25.431Z,73.6756
2024-04-06T08:14:26.846Z,73.5257
2024-04-06T08:15:30.830Z,73.4085
2024-04-06T08:16:29.738Z,73.5628
2024-04-06T08:17:31.197Z,73.6221
2024-04-06T08:18:32.620Z,73.6177
2024-04-06T08:19:34.066Z,73.6469
2024-04-06T08:20:35.494Z,73.6068
2024-04-06T08:21:36.788Z,73.6428
2024-04-06T08:22:38.053Z,73.6600
2024-04-06T08:23:39.502Z,73.6380
2024-04-06T08:24:40.996Z,73.6458
2024-04-06T08:25:42.411Z,73.6220
2024-04-06T08:26:43.813Z,73.5975
2024-04-06T08:27:45.097Z,73.5211
2024-04-06T08:28:46.526Z,73.2932
2024-04-06T08:29:47.818Z,72.9652
2024-04-06T08:30:49.121Z,72.4204
2024-04-06T08:31:50.462Z,72.5370
2024-04-06T08:32:51.730Z,72.5846
2024-04-06T08:33:53.036Z,72.3701
2024-04-06T08:34:54.393Z,71.8610
2024-04-06T08:35:55.822Z,71.3492
2024-04-06T08:36:57.270Z,71.3140
2024-04-06T08:37:58.723Z,71.5146
2024-04-06T08:39:00.148Z,71.6768
2024-04-06T08:40:01.604Z,71.7928
2024-04-06T08:41:03.017Z,71.7635
2024-04-06T08:42:04.459Z,70.9663
2024-04-06T08:43:05.911Z,71.0120
2024-04-06T08:44:07.348Z,71.3511
2024-04-06T08:45:08.765Z,71.5206
2024-04-06T08:46:10.252Z,71.4523
2024-04-06T08:47:11.656Z,71.3142
2024-04-06T08:48:13.102Z,71.2322
2024-04-06T08:49:14.580Z,71.3299
2024-04-06T08:50:15.986Z,71.3695
2024-04-06T08:51:17.422Z,71.2875
2024-04-06T08:52:18.857Z,71.3748
2024-04-06T08:53:20.343Z,71.2266
2024-04-06T08:54:21.767Z,71.0959
2024-04-06T08:55:23.177Z,71.1101
2024-04-06T08:56:24.627Z,71.1373
2024-04-06T08:57:26.056Z,70.9535
2024-04-06T08:58:27.356Z,70.7511
2024-04-06T08:59:28.636Z,70.4756
2024-04-06T09:00:30.098Z,70.3611
2024-04-06T09:01:31.488Z,70.7142
2024-04-06T09:02:32.935Z,70.7387
2024-04-06T09:03:34.389Z,70.6787
2024-04-06T09:04:35.839Z,70.5178
2024-04-06T09:05:37.247Z,70.1956
2024-04-06T09:06:38.694Z,70.0301
2024-04-06T09:07:40.133Z,69.5768
2024-04-06T09:08:41.580Z,69.2220
2024-04-06T09:09:43.012Z,69.3811
2024-04-06T09:10:44.464Z,69.2133
2024-04-06T09:11:45.894Z,69.4012
2024-04-06T09:12:47.379Z,69.5646
2024-04-06T09:13:48.907Z,69.3819
2024-04-06T09:14:50.245Z,69.5117
2024-04-06T09:15:51.662Z,69.4789
2024-04-06T09:16:53.170Z,69.3753
2024-04-06T09:17:54.541Z,69.3428
2024-04-06T09:18:55.979Z,69.3903
2024-04-06T09:19:57.425Z,69.2062
2024-04-06T09:20:58.863Z,69.3865
2024-04-06T09:22:00.300Z,69.4346
2024-04-06T09:23:01.577Z,69.2428
2024-04-06T09:24:02.844Z,69.0137
2024-04-06T09:25:04.338Z,68.6287
2024-04-06T09:26:05.603Z,68.1650
2024-04-06T09:27:06.895Z,67.7287
2024-04-06T09:28:08.318Z,67.4752
2024-04-06T09:29:09.753Z,67.3428
2024-04-06T09:30:11.125Z,67.1031
2024-04-06T09:31:12.459Z,66.8900
2024-04-06T09:32:13.744Z,66.6476
2024-04-06T09:33:15.180Z,66.5176
2024-04-06T09:34:16.649Z,66.2191
2024-04-06T09:35:18.120Z,65.9724
2024-04-06T09:36:19.587Z,65.9471
2024-04-06T09:37:20.944Z,65.4613
2024-04-06T09:38:25.663Z,65.0879
2024-04-06T09:39:23.826Z,64.3376
2024-04-06T09:40:25.254Z,64.5255
2024-04-06T09:41:26.698Z,64.2402
2024-04-06T09:42:27.977Z,64.4703
2024-04-06T09:43:29.276Z,64.1521
2024-04-06T09:44:30.708Z,63.8257
2024-04-06T09:45:32.145Z,63.5188
2024-04-06T09:46:33.596Z,62.9127
2024-04-06T09:47:35.014Z,63.0735
2024-04-06T09:48:36.455Z,63.2242
2024-04-06T09:49:37.815Z,63.1210
2024-04-06T09:50:39.105Z,63.0469
2024-04-06T09:51:40.465Z,61.4173
2024-04-06T09:52:41.898Z,60.4096
2024-04-06T09:53:43.343Z,61.0178
2024-04-06T09:54:44.776Z,61.1959
2024-04-06T09:55:46.225Z,61.2462
2024-04-06T09:56:47.679Z,60.9951
2024-04-06T09:57:48.941Z,60.8576
2024-04-06T09:58:50.249Z,60.7637
2024-04-06T09:59:52.397Z,60.2496
2024-04-06T10:00:54.667Z,60.0665
2024-04-06T10:01:56.106Z,59.9095
2024-04-06T10:02:57.548Z,59.7904
2024-04-06T10:03:58.978Z,59.0009
2024-04-06T10:05:00.347Z,59.7034
2024-04-06T10:06:01.621Z,59.9140
2024-04-06T10:07:02.908Z,59.9327
2024-04-06T10:08:04.252Z,60.0458
2024-04-06T10:09:05.560Z,60.0896
2024-04-06T10:10:07.016Z,58.8883
2024-04-06T10:11:08.464Z,59.6822
2024-04-06T10:12:09.904Z,59.9344
2024-04-06T10:13:11.350Z,59.3076
2024-04-06T10:14:13.795Z,59.6455
2024-04-06T10:15:16.079Z,59.8988
2024-04-06T10:16:17.456Z,60.0152
2024-04-06T10:17:18.744Z,60.2086
2024-04-06T10:18:20.138Z,60.2912
2024-04-06T10:19:21.599Z,59.3509
2024-04-06T10:20:22.855Z,59.2268
2024-04-06T10:21:24.141Z,59.1442
2024-04-06T10:22:25.600Z,59.6699
2024-04-06T10:23:27.028Z,60.1757
2024-04-06T10:24:28.458Z,60.4032
2024-04-06T10:25:29.898Z,60.3227
2024-04-06T10:26:31.341Z,60.5734
2024-04-06T10:27:32.772Z,60.6520
2024-04-06T10:28:34.234Z,60.5069
2024-04-06T10:29:35.656Z,60.3978
2024-04-06T10:30:37.120Z,60.3181
2024-04-06T10:31:46.058Z,59.9829
2024-04-06T10:32:38.668Z,58.5181
2024-04-06T10:33:40.116Z,59.2382
2024-04-06T10:34:49.690Z,59.4026
2024-04-06T10:35:41.597Z,59.7502
2024-04-06T10:36:42.919Z,60.1729
2024-04-06T10:37:44.246Z,60.2656
2024-04-06T10:38:45.627Z,60.1170
2024-04-06T10:39:46.881Z,59.8582
2024-04-06T10:40:48.308Z,59.5034
2024-04-06T10:41:49.855Z,59.0268
2024-04-06T10:42:51.176Z,58.8559
2024-04-06T10:43:52.622Z,58.1962
2024-04-06T10:44:54.056Z,57.1946
2024-04-06T10:45:55.528Z,56.6255
2024-04-06T10:46:56.990Z,56.2257
2024-04-06T10:47:58.404Z,56.0987
2024-04-06T10:48:59.767Z,56.3216
2024-04-06T10:50:01.125Z,56.5240
2024-04-06T10:51:02.447Z,56.4841
2024-04-06T10:52:03.819Z,56.4094
2024-04-06T10:53:05.242Z,56.3642
2024-04-06T10:54:06.691Z,56.1212
2024-04-06T10:55:08.131Z,55.6096
2024-04-06T10:56:09.658Z,56.1183
2024-04-06T10:57:11.101Z,55.8664
2024-04-06T10:58:12.481Z,56.1589
2024-04-06T10:59:13.814Z,56.0262
2024-04-06T11:00:15.104Z,55.6257
2024-04-06T11:01:16.483Z,55.5095
2024-04-06T11:02:17.904Z,55.4288
2024-04-06T11:03:19.348Z,54.9337
2024-04-06T11:04:20.898Z,54.5174
2024-04-06T11:05:22.266Z,53.6756
2024-04-06T11:06:23.669Z,54.2007
2024-04-06T11:07:25.099Z,54.6669
2024-04-06T11:08:26.365Z,54.2473
2024-04-06T11:09:27.645Z,53.0223
2024-04-06T11:10:28.934Z,54.1769
2024-04-06T11:11:30.209Z,54.5427
2024-04-06T11:12:31.657Z,54.7513
2024-04-06T11:13:33.102Z,54.6687
2024-04-06T11:14:34.537Z,54.4522
2024-04-06T11:15:35.987Z,54.5605
2024-04-06T11:16:37.539Z,54.3918
2024-04-06T11:17:38.931Z,53.7567
2024-04-06T11:18:42.159Z,53.6870
2024-04-06T11:19:43.628Z,53.1459
2024-04-06T11:20:45.087Z,54.0135
2024-04-06T11:21:46.434Z,54.6184
2024-04-06T11:22:47.768Z,54.4774
2024-04-06T11:23:49.405Z,53.6865
2024-04-06T11:24:50.847Z,53.8209
2024-04-06T11:25:52.274Z,52.9063
2024-04-06T11:26:53.717Z,52.5695
2024-04-06T11:27:55.204Z,52.3411
2024-04-06T11:28:56.608Z,52.2535
2024-04-06T11:29:58.880Z,52.1923
2024-04-06T11:31:01.430Z,52.3711
2024-04-06T11:32:02.699Z,52.3042
2024-04-06T11:33:04.001Z,51.5587
2024-04-06T11:34:05.418Z,51.9787
2024-04-06T11:35:06.872Z,52.2319
2024-04-06T11:36:08.308Z,52.0335
2024-04-06T11:37:09.815Z,52.1381
2024-04-06T11:38:11.175Z,51.9228
2024-04-06T11:39:12.612Z,52.6649
2024-04-06T11:40:14.062Z,52.0228
2024-04-06T11:41:15.498Z,52.0389
2024-04-06T11:42:16.956Z,51.8571
2024-04-06T11:43:18.546Z,52.1772
2024-04-06T11:44:19.805Z,52.1786
2024-04-06T11:45:21.284Z,52.3259
2024-04-06T11:46:22.754Z,51.2664
2024-04-06T11:47:24.147Z,50.5703
2024-04-06T11:48:26.982Z,50.9732
2024-04-06T11:49:26.108Z,51.2202
2024-04-06T11:50:27.421Z,51.7680
2024-04-06T11:51:28.762Z,51.7201
2024-04-06T11:52:30.037Z,51.6131
2024-04-06T11:53:31.518Z,50.8977
2024-04-06T11:54:32.945Z,50.7119
2024-04-06T11:55:34.387Z,50.8053
2024-04-06T11:56:35.806Z,51.2657
2024-04-06T11:57:37.266Z,50.9398
2024-04-06T11:58:38.533Z,50.4908
2024-04-06T11:59:39.854Z,49.5542
2024-04-06T12:00:41.279Z,48.4326
2024-04-06T12:01:42.711Z,48.6490
2024-04-06T12:02:44.144Z,49.1475
2024-04-06T12:03:45.630Z,49.4745
2024-04-06T12:04:47.022Z,49.4571
2024-04-06T12:05:48.467Z,50.2186
2024-04-06T12:06:49.934Z,50.7883
2024-04-06T12:07:51.344Z,51.3365
2024-04-06T12:08:52.762Z,51.0145
2024-04-06T12:09:54.225Z,51.3813
2024-04-06T12:10:55.656Z,50.8701
2024-04-06T12:11:59.143Z,50.4603
2024-04-06T12:13:00.528Z,50.9595
2024-04-06T12:14:01.898Z,51.1193
2024-04-06T12:15:03.188Z,50.0935
2024-04-06T12:16:04.509Z,50.0785
2024-04-06T12:17:05.824Z,50.0875
2024-04-06T12:18:07.141Z,50.5284
2024-04-06T12:19:08.457Z,50.1384
2024-04-06T12:20:09.922Z,49.7588
2024-04-06T12:21:11.331Z,50.3797
2024-04-06T12:22:12.777Z,50.7414
2024-04-06T12:23:14.221Z,50.2449
2024-04-06T12:24:15.686Z,50.1565
2024-04-06T12:25:17.160Z,50.1153
2024-04-06T12:26:18.537Z,49.8899
2024-04-06T12:27:19.864Z,50.0772
2024-04-06T12:28:21.157Z,49.4013